createdAt,value
2023-05-29T00:02:20.961Z,19.76
2023-05-29T00:04:50.137Z,19.32
2023-05-29T00:07:19.215Z,19.53
2023-05-29T00:09:48.341Z,19.91
2023-05-29T00:12:17.560Z,19.49
2023-05-29T00:14:49.399Z,19.91
2023-05-29T00:17:18.570Z,19.59
2023-05-29T00:19:48.361Z,20.16
2023-05-29T00:22:17.706Z,20.07
2023-05-29T00:24:46.984Z,19.94
2023-05-29T00:27:16.059Z,20.46
2023-05-29T00:29:45.112Z,20.20
2023-05-29T00:32:14.811Z,19.91
2023-05-29T00:34:45.979Z,20.30
2023-05-29T00:37:15.805Z,20.81
2023-05-29T00:39:45.096Z,20.32
2023-05-29T00:42:14.115Z,20.75
2023-05-29T00:44:43.435Z,20.96
2023-05-29T00:47:13.195Z,20.42
2023-05-29T00:49:42.819Z,19.65
2023-05-29T00:52:13.850Z,19.93
2023-05-29T00:54:48.055Z,19.63
2023-05-29T00:57:19.032Z,19.60
2023-05-29T00:59:49.771Z,20.05
2023-05-29T01:02:20.509Z,19.82
2023-05-29T01:04:50.620Z,19.78
2023-05-29T01:07:20.178Z,19.74
2023-05-29T01:09:49.518Z,19.81
2023-05-29T01:12:37.054Z,19.91
2023-05-29T01:15:32.221Z,20.38
2023-05-29T01:18:16.428Z,20.26
2023-05-29T01:20:55.778Z,19.90
2023-05-29T01:23:44.248Z,19.86
2023-05-29T01:26:36.222Z,20.30
2023-05-29T01:29:09.400Z,20.38
2023-05-29T01:31:39.548Z,19.68
2023-05-29T01:34:09.368Z,19.81
2023-05-29T01:36:38.408Z,19.70
2023-05-29T01:39:10.228Z,19.60
2023-05-29T01:41:40.548Z,19.73
2023-05-29T01:44:11.088Z,19.35
2023-05-29T01:46:47.069Z,19.68
2023-05-29T01:49:17.968Z,19.81
2023-05-29T01:51:47.340Z,19.84
2023-05-29T01:54:17.200Z,19.67
2023-05-29T01:56:48.909Z,19.68
2023-05-29T01:59:18.651Z,19.76
2023-05-29T02:01:49.789Z,19.73
2023-05-29T02:04:23.538Z,19.68
2023-05-29T02:06:55.456Z,19.63
2023-05-29T02:09:24.939Z,19.59
2023-05-29T02:11:55.214Z,19.59
2023-05-29T02:14:27.536Z,19.54
2023-05-29T02:17:01.739Z,19.36
2023-05-29T02:19:31.239Z,19.23
2023-05-29T02:22:00.617Z,19.25
2023-05-29T02:24:29.883Z,19.09
2023-05-29T02:26:59.245Z,19.18
2023-05-29T02:29:28.712Z,19.17
2023-05-29T02:31:57.903Z,18.97
2023-05-29T02:34:27.568Z,18.75
2023-05-29T02:36:56.792Z,19.00
2023-05-29T02:39:27.256Z,19.15
2023-05-29T02:41:57.099Z,19.16
2023-05-29T02:44:26.281Z,19.18
2023-05-29T02:46:55.226Z,18.87
2023-05-29T02:49:24.323Z,18.51
2023-05-29T02:51:58.265Z,18.79
2023-05-29T02:54:30.129Z,18.78
2023-05-29T02:56:59.114Z,18.59
2023-05-29T02:59:28.990Z,18.56
2023-05-29T03:01:59.057Z,18.55
2023-05-29T03:04:29.376Z,18.62
2023-05-29T03:06:59.435Z,18.55
2023-05-29T03:09:29.859Z,18.52
2023-05-29T03:11:59.421Z,18.21
2023-05-29T03:14:29.404Z,18.37
2023-05-29T03:16:58.480Z,18.23
2023-05-29T03:19:27.729Z,18.33
2023-05-29T03:21:56.807Z,18.16
2023-05-29T03:24:26.302Z,18.24
2023-05-29T03:26:55.620Z,18.41
2023-05-29T03:29:25.912Z,18.47
2023-05-29T03:31:57.176Z,18.44
2023-05-29T03:34:31.178Z,18.40
2023-05-29T03:37:01.524Z,18.30
2023-05-29T03:39:32.465Z,18.21
2023-05-29T03:42:02.116Z,18.10
2023-05-29T03:44:31.438Z,18.10
2023-05-29T03:47:00.815Z,18.02
2023-05-29T03:49:30.056Z,17.91
2023-05-29T03:51:59.153Z,17.87
2023-05-29T03:54:28.330Z,17.78
2023-05-29T03:56:57.571Z,17.73
2023-05-29T03:59:29.621Z,17.55
2023-05-29T04:01:58.828Z,17.46
2023-05-29T04:04:28.931Z,17.41
2023-05-29T04:06:58.643Z,17.34
2023-05-29T04:09:27.712Z,17.29
2023-05-29T04:11:57.445Z,17.16
2023-05-29T04:14:26.577Z,17.08
2023-05-29T04:16:55.601Z,17.03
2023-05-29T04:19:26.054Z,16.96
2023-05-29T04:21:56.039Z,16.88
2023-05-29T04:24:26.364Z,16.82
2023-05-29T04:26:55.547Z,16.82
2023-05-29T04:29:25.153Z,16.78
2023-05-29T04:31:54.608Z,16.65
2023-05-29T04:34:23.979Z,16.54
2023-05-29T04:36:53.444Z,16.46
2023-05-29T04:39:24.122Z,16.38
2023-05-29T04:48:18.586Z,16.21
2023-05-29T04:50:56.169Z,16.15
2023-05-29T04:53:30.107Z,16.09
2023-05-29T04:56:02.563Z,16.09
2023-05-29T04:58:44.730Z,16.05
2023-05-29T05:01:21.065Z,15.99
2023-05-29T05:03:58.254Z,15.96
2023-05-29T05:06:28.595Z,15.94
2023-05-29T05:09:04.110Z,15.93
2023-05-29T05:11:37.919Z,15.96
2023-05-29T05:14:14.429Z,15.88
2023-05-29T05:16:47.610Z,15.85
2023-05-29T05:19:20.370Z,15.84
2023-05-29T05:21:52.851Z,15.80
2023-05-29T05:24:28.378Z,15.74
2023-05-29T05:27:02.649Z,15.68
2023-05-29T05:29:41.641Z,15.67
2023-05-29T05:32:12.045Z,15.66
2023-05-29T05:34:45.505Z,15.63
2023-05-29T05:37:21.684Z,15.59
2023-05-29T05:39:55.468Z,15.57
2023-05-29T05:42:32.410Z,15.53
2023-05-29T05:45:13.853Z,15.48
2023-05-29T05:47:50.100Z,15.43
2023-05-29T05:50:35.493Z,15.37
2023-05-29T05:53:16.100Z,15.32
2023-05-29T05:55:55.116Z,15.30
2023-05-29T05:58:30.793Z,15.28
2023-05-29T06:01:06.014Z,15.24
2023-05-29T06:03:47.595Z,15.21
2023-05-29T06:06:19.282Z,15.17
2023-05-29T06:08:51.582Z,15.15
2023-05-29T06:11:27.748Z,15.08
2023-05-29T06:14:03.020Z,15.07
2023-05-29T06:16:43.643Z,15.05
2023-05-29T06:19:17.174Z,14.95
2023-05-29T06:22:02.604Z,14.89
2023-05-29T06:24:44.141Z,14.82
2023-05-29T06:27:14.238Z,14.78
2023-05-29T06:29:44.108Z,14.73
2023-05-29T06:32:13.984Z,14.72
2023-05-29T06:34:46.751Z,14.65
2023-05-29T06:37:17.072Z,14.61
2023-05-29T06:39:50.164Z,14.59
2023-05-29T06:42:23.273Z,14.58
2023-05-29T06:45:01.137Z,14.56
2023-05-29T06:47:31.655Z,14.51
2023-05-29T06:50:08.188Z,14.43
2023-05-29T06:52:39.757Z,14.26
2023-05-29T06:55:30.361Z,14.33
2023-05-29T06:58:03.717Z,14.23
2023-05-29T07:00:33.735Z,14.10
2023-05-29T07:03:22.781Z,13.90
2023-05-29T07:05:55.833Z,13.96
2023-05-29T07:08:27.226Z,13.84
2023-05-29T07:10:57.487Z,13.82
2023-05-29T07:13:30.801Z,13.71
2023-05-29T07:16:05.242Z,13.79
2023-05-29T07:18:40.746Z,13.84
2023-05-29T07:21:23.276Z,13.94
2023-05-29T07:23:53.962Z,13.97
2023-05-29T07:26:27.564Z,13.84
2023-05-29T07:29:05.600Z,13.86
2023-05-29T07:31:42.671Z,13.88
2023-05-29T07:34:14.015Z,13.74
2023-05-29T07:37:00.717Z,13.61
2023-05-29T07:39:31.577Z,13.43
2023-05-29T07:42:10.085Z,13.35
2023-05-29T07:44:44.732Z,13.33
2023-05-29T07:47:15.138Z,13.25
2023-05-29T07:49:49.511Z,13.20
2023-05-29T07:52:20.428Z,13.22
2023-05-29T07:54:51.105Z,13.13
2023-05-29T07:57:21.698Z,13.13
2023-05-29T07:59:52.386Z,13.25
2023-05-29T08:02:23.300Z,13.37
2023-05-29T08:05:11.210Z,13.09
2023-05-29T08:07:41.462Z,13.10
2023-05-29T08:10:11.911Z,12.98
2023-05-29T08:12:43.643Z,13.08
2023-05-29T08:15:14.572Z,12.88
2023-05-29T08:17:47.940Z,12.97
2023-05-29T08:20:18.931Z,12.99
2023-05-29T08:22:48.954Z,13.03
2023-05-29T08:25:18.748Z,13.02
2023-05-29T08:27:48.613Z,12.94
2023-05-29T08:30:19.065Z,12.63
2023-05-29T08:32:49.201Z,12.65
2023-05-29T08:35:22.418Z,12.78
2023-05-29T08:37:53.350Z,12.84
2023-05-29T08:40:23.157Z,12.92
2023-05-29T08:43:26.861Z,12.92
2023-05-29T08:46:02.558Z,12.89
2023-05-29T08:48:42.990Z,12.84
2023-05-29T08:51:13.537Z,12.79
2023-05-29T08:53:48.194Z,12.74
2023-05-29T08:56:33.219Z,12.74
2023-05-29T09:01:57.646Z,12.49
2023-05-29T09:04:37.017Z,12.42
2023-05-29T09:07:11.797Z,12.24
2023-05-29T09:09:45.547Z,12.17
2023-05-29T09:12:16.344Z,12.27
2023-05-29T09:14:47.492Z,12.20
2023-05-29T09:17:23.849Z,12.21
2023-05-29T09:19:56.972Z,12.23
2023-05-29T09:22:26.974Z,12.13
2023-05-29T09:24:57.177Z,12.03
2023-05-29T09:27:27.088Z,11.94
2023-05-29T09:29:57.009Z,12.00
2023-05-29T09:32:34.818Z,12.11
2023-05-29T09:35:09.678Z,12.13
2023-05-29T09:37:44.725Z,12.16
2023-05-29T09:40:17.718Z,12.19
2023-05-29T09:42:47.467Z,12.09
2023-05-29T09:45:20.294Z,12.06
2023-05-29T09:47:50.644Z,11.96
2023-05-29T09:50:28.497Z,12.10
2023-05-29T09:53:03.464Z,12.03
2023-05-29T09:55:35.832Z,12.02
2023-05-29T09:58:07.232Z,12.04
2023-05-29T10:00:37.883Z,11.93
2023-05-29T10:03:07.986Z,11.86
2023-05-29T10:05:40.189Z,11.93
2023-05-29T10:08:15.960Z,11.85
2023-05-29T10:10:57.086Z,11.90
2023-05-29T10:13:30.671Z,11.97
2023-05-29T10:16:03.770Z,11.97
2023-05-29T10:18:51.554Z,12.00
2023-05-29T10:21:21.862Z,11.56
2023-05-29T10:23:53.274Z,11.57
2023-05-29T10:26:28.887Z,11.57
2023-05-29T10:29:10.328Z,11.49
2023-05-29T10:32:04.519Z,11.55
2023-05-29T10:34:40.978Z,11.77
2023-05-29T10:37:37.597Z,11.86
2023-05-29T10:40:14.922Z,11.75
2023-05-29T10:42:54.524Z,11.69
2023-05-29T10:45:38.743Z,11.69
2023-05-29T10:48:15.060Z,11.67
2023-05-29T10:50:47.308Z,11.65
2023-05-29T10:53:25.622Z,11.47
2023-05-29T10:55:57.168Z,11.46
2023-05-29T10:58:29.393Z,11.40
2023-05-29T11:01:00.984Z,11.38
2023-05-29T11:03:36.583Z,11.23
2023-05-29T11:06:13.066Z,11.10
2023-05-29T11:08:59.454Z,11.04
2023-05-29T11:11:38.543Z,11.15
2023-05-29T11:14:09.951Z,11.19
2023-05-29T11:16:40.374Z,11.25
2023-05-29T11:19:14.123Z,11.28
2023-05-29T11:21:51.543Z,11.17
2023-05-29T11:24:29.834Z,11.06
2023-05-29T11:27:08.429Z,11.13
2023-05-29T11:29:38.581Z,11.08
2023-05-29T11:32:14.698Z,11.02
2023-05-29T11:34:47.577Z,10.95
2023-05-29T11:37:17.503Z,10.91
2023-05-29T11:39:48.596Z,10.95
2023-05-29T11:42:18.614Z,10.97
2023-05-29T11:44:48.544Z,11.10
2023-05-29T11:47:18.472Z,11.01
2023-05-29T11:49:48.365Z,10.94
2023-05-29T11:52:24.907Z,10.81
2023-05-29T11:54:55.386Z,10.99
2023-05-29T11:57:26.447Z,11.02
2023-05-29T12:00:01.343Z,10.99
2023-05-29T12:02:43.519Z,11.06
2023-05-29T12:05:16.432Z,11.04
2023-05-29T12:07:59.891Z,11.11
2023-05-29T12:10:31.906Z,10.85
2023-05-29T12:13:05.251Z,10.85
2023-05-29T12:15:38.402Z,11.06
2023-05-29T12:18:11.348Z,11.08
2023-05-29T12:20:41.463Z,11.09
2023-05-29T12:23:15.945Z,11.08
2023-05-29T12:25:48.845Z,11.03
2023-05-29T12:28:23.073Z,11.35
2023-05-29T12:30:53.492Z,11.29
2023-05-29T12:33:34.802Z,11.09
2023-05-29T12:36:05.900Z,11.09
2023-05-29T12:38:40.402Z,11.51
2023-05-29T12:41:10.465Z,11.38
2023-05-29T12:43:45.572Z,11.25
2023-05-29T12:46:15.984Z,11.10
2023-05-29T12:48:46.645Z,11.38
2023-05-29T12:51:17.065Z,11.63
2023-05-29T12:53:47.164Z,11.47
2023-05-29T12:56:17.239Z,11.64
2023-05-29T12:58:49.850Z,11.68
2023-05-29T13:01:28.061Z,11.65
2023-05-29T13:03:58.499Z,11.68
2023-05-29T13:06:32.810Z,11.43
2023-05-29T13:09:02.964Z,11.14
2023-05-29T13:11:36.709Z,11.24
2023-05-29T13:14:11.896Z,11.19
2023-05-29T13:16:47.524Z,11.11
2023-05-29T13:19:21.910Z,11.16
2023-05-29T13:21:52.476Z,11.49
2023-05-29T13:24:22.795Z,11.22
2023-05-29T13:26:53.940Z,11.14
2023-05-29T13:29:23.944Z,11.28
2023-05-29T13:31:54.224Z,11.50
2023-05-29T13:34:31.042Z,11.52
2023-05-29T13:37:02.801Z,11.29
2023-05-29T13:39:33.077Z,11.11
2023-05-29T13:42:03.459Z,11.31
2023-05-29T13:44:34.014Z,11.21
2023-05-29T13:47:08.474Z,11.08
2023-05-29T13:49:39.637Z,11.08
2023-05-29T13:52:10.387Z,11.16
2023-05-29T13:54:41.948Z,11.26
2023-05-29T13:57:12.372Z,11.13
2023-05-29T13:59:45.434Z,11.32
2023-05-29T14:02:19.140Z,11.04
2023-05-29T14:04:48.951Z,11.30
2023-05-29T14:07:18.831Z,11.04
2023-05-29T14:09:48.746Z,11.04
2023-05-29T14:12:18.393Z,11.41
2023-05-29T14:15:03.740Z,11.69
2023-05-29T14:17:34.582Z,11.61
2023-05-29T14:20:06.864Z,11.73
2023-05-29T14:22:38.978Z,11.73
2023-05-29T14:25:10.263Z,11.82
2023-05-29T14:27:40.011Z,11.81
2023-05-29T14:30:10.969Z,11.73
2023-05-29T14:33:24.520Z,11.65
2023-05-29T14:35:59.983Z,11.71
2023-05-29T14:38:30.546Z,11.74
2023-05-29T14:41:08.852Z,11.75
2023-05-29T14:44:54.830Z,11.83
2023-05-29T14:47:34.935Z,11.79
2023-05-29T14:50:07.013Z,11.88
2023-05-29T14:52:36.953Z,11.94
2023-05-29T14:59:08.699Z,11.88
2023-05-29T15:01:38.960Z,11.93
2023-05-29T15:04:33.383Z,11.97
2023-05-29T15:07:06.706Z,11.99
2023-05-29T15:09:36.941Z,12.01
2023-05-29T15:12:09.143Z,12.08
2023-05-29T15:14:39.681Z,12.00
2023-05-29T15:17:11.034Z,12.19
2023-05-29T15:19:41.099Z,12.10
2023-05-29T15:22:11.338Z,12.09
2023-05-29T15:24:41.702Z,11.97
2023-05-29T15:27:12.322Z,12.16
2023-05-29T15:29:45.528Z,12.20
2023-05-29T15:32:15.569Z,12.30
2023-05-29T15:34:45.131Z,12.40
2023-05-29T15:37:14.843Z,12.39
2023-05-29T15:39:44.633Z,12.18
2023-05-29T15:42:16.590Z,12.19
2023-05-29T15:44:46.395Z,12.35
2023-05-29T15:54:32.580Z,12.32
2023-05-29T15:57:21.545Z,12.45
2023-05-29T16:15:17.167Z,12.59
2023-05-29T16:17:57.629Z,12.36
2023-05-29T16:20:36.856Z,12.56
2023-05-29T16:23:12.584Z,12.64
2023-05-29T16:25:55.556Z,12.71
2023-05-29T16:28:25.458Z,12.65
2023-05-29T16:30:55.912Z,12.59
2023-05-29T16:33:27.574Z,12.46
2023-05-29T16:40:40.981Z,12.63
2023-05-29T16:43:12.139Z,12.77
2023-05-29T16:45:44.577Z,12.84
2023-05-29T16:48:14.728Z,12.79
2023-05-29T16:56:15.776Z,12.88
2023-05-29T17:08:17.575Z,13.13
2023-05-29T17:14:30.200Z,13.10
2023-05-29T17:18:08.050Z,13.14
2023-05-29T17:20:42.651Z,13.21
2023-05-29T17:23:12.973Z,13.24
2023-05-29T17:25:43.000Z,13.29
2023-05-29T17:28:18.957Z,13.24
2023-05-29T17:30:53.727Z,13.30
2023-05-29T17:33:23.676Z,13.27
2023-05-29T17:35:53.646Z,13.24
2023-05-29T17:38:28.550Z,13.33
2023-05-29T17:40:58.678Z,13.50
2023-05-29T17:43:28.497Z,13.47
2023-05-29T17:46:01.526Z,13.29
2023-05-29T17:48:31.453Z,13.43
2023-05-29T17:51:04.711Z,13.50
2023-05-29T17:53:34.428Z,13.43
2023-05-29T17:56:04.450Z,13.65
2023-05-29T17:58:34.356Z,13.56
2023-05-29T18:01:05.774Z,13.45
2023-05-29T18:03:35.768Z,13.35
2023-05-29T18:06:07.726Z,13.46
2023-05-29T18:08:39.770Z,13.45
2023-05-29T18:11:23.000Z,13.78
2023-05-29T18:13:53.195Z,13.65
2023-05-29T18:16:24.961Z,13.55
2023-05-29T18:18:55.035Z,13.77
2023-05-29T18:21:24.897Z,13.73
2023-05-29T18:23:55.475Z,13.85
2023-05-29T18:26:25.291Z,13.98
2023-05-29T18:28:56.532Z,14.21
2023-05-29T18:31:26.802Z,14.11
2023-05-29T18:33:56.579Z,14.26
2023-05-29T18:36:27.193Z,14.24
2023-05-29T18:38:59.543Z,14.18
2023-05-29T18:41:29.996Z,13.94
2023-05-29T18:44:00.008Z,14.10
2023-05-29T18:46:29.987Z,14.24
2023-05-29T18:48:59.982Z,14.27
2023-05-29T18:51:32.898Z,14.30
2023-05-29T18:54:04.576Z,14.40
2023-05-29T18:56:34.232Z,14.70
2023-05-29T18:59:03.993Z,14.73
2023-05-29T19:01:34.860Z,14.38
2023-05-29T19:04:05.874Z,14.17
2023-05-29T19:06:36.234Z,14.54
2023-05-29T19:09:06.549Z,14.51
2023-05-29T19:11:45.578Z,14.29
2023-05-29T19:14:27.665Z,14.53
2023-05-29T19:16:57.495Z,14.64
2023-05-29T19:19:27.778Z,14.50
2023-05-29T19:21:58.053Z,14.49
2023-05-29T19:24:27.721Z,14.43
2023-05-29T19:26:57.305Z,14.52
2023-05-29T19:29:27.078Z,14.56
2023-05-29T19:31:57.578Z,14.64
2023-05-29T19:34:27.543Z,14.91
2023-05-29T19:36:57.201Z,14.72
2023-05-29T19:39:26.962Z,14.73
2023-05-29T19:41:57.303Z,14.75
2023-05-29T19:44:27.219Z,14.57
2023-05-29T19:46:58.240Z,14.76
2023-05-29T19:49:28.484Z,14.79
2023-05-29T19:52:04.613Z,14.87
2023-05-29T19:54:36.600Z,14.66
2023-05-29T19:57:19.573Z,14.88
2023-05-29T20:00:23.177Z,14.93
2023-05-29T20:02:53.627Z,14.82
2023-05-29T20:33:13.165Z,17.33
2023-05-29T20:36:42.278Z,17.49
2023-05-29T20:39:23.729Z,17.09
2023-05-29T20:41:56.580Z,18.07
2023-05-29T20:44:31.563Z,17.69
2023-05-29T20:47:01.507Z,17.97
2023-05-29T20:49:32.504Z,18.23
2023-05-29T20:52:12.724Z,18.06
2023-05-29T20:54:46.224Z,18.02
2023-05-29T20:57:19.150Z,17.83
2023-05-29T21:00:19.581Z,17.52
2023-05-29T21:02:49.896Z,18.22
2023-05-29T21:05:22.379Z,18.50
2023-05-29T21:07:54.733Z,17.63
2023-05-29T21:10:26.265Z,18.25
2023-05-29T21:12:57.029Z,18.17
2023-05-29T21:15:30.536Z,18.60
2023-05-29T21:18:09.672Z,18.92
2023-05-29T21:20:43.358Z,18.42
2023-05-29T21:23:18.770Z,18.88
2023-05-29T21:25:57.163Z,18.45
2023-05-29T21:28:33.191Z,18.66
2023-05-29T21:31:23.605Z,18.06
2023-05-29T21:33:53.747Z,18.46
2023-05-29T21:36:32.876Z,18.64
2023-05-29T21:39:06.146Z,18.98
2023-05-29T21:41:39.848Z,18.88
2023-05-29T21:44:16.749Z,18.70
2023-05-29T21:46:54.749Z,18.67
2023-05-29T21:49:27.426Z,18.93
2023-05-29T21:51:57.775Z,18.54
2023-05-29T21:54:31.234Z,18.50
2023-05-29T21:57:01.249Z,18.43
2023-05-29T21:59:36.656Z,19.23
2023-05-29T22:02:17.020Z,18.48
2023-05-29T22:05:02.764Z,19.12
2023-05-29T22:08:22.334Z,19.05
2023-05-29T22:11:24.579Z,18.72
2023-05-29T22:13:55.515Z,19.25
2023-05-29T22:16:35.154Z,19.51
2023-05-29T22:19:08.699Z,19.54
2023-05-29T22:21:45.191Z,19.21
2023-05-29T22:24:22.925Z,19.29
2023-05-29T22:27:39.410Z,19.66
2023-05-29T22:30:16.439Z,20.52
2023-05-29T22:33:00.117Z,19.61
2023-05-29T22:35:30.568Z,19.93
2023-05-29T22:38:00.653Z,19.58
2023-05-29T22:40:30.705Z,19.76
2023-05-29T22:43:03.338Z,18.74
2023-05-29T22:45:45.958Z,19.30
2023-05-29T22:48:31.780Z,19.75
2023-05-29T22:51:10.477Z,19.77
2023-05-29T22:56:40.672Z,19.62
2023-05-29T22:59:13.796Z,19.13
2023-05-29T23:05:03.424Z,19.29
2023-05-29T23:07:38.418Z,19.12
2023-05-29T23:10:14.255Z,19.64
2023-05-29T23:12:47.403Z,19.32
2023-05-29T23:15:17.966Z,19.54
2023-05-29T23:17:59.386Z,19.97
2023-05-29T23:20:55.242Z,19.63
2023-05-29T23:27:15.011Z,19.14
2023-05-29T23:29:51.882Z,19.51
2023-05-29T23:32:31.376Z,19.48
2023-05-29T23:35:05.759Z,20.02
2023-05-29T23:37:36.211Z,20.43
2023-05-29T23:40:20.014Z,19.90
2023-05-29T23:46:31.901Z,20.09
2023-05-29T23:49:06.028Z,20.01
2023-05-29T23:51:49.462Z,20.05
2023-05-29T23:54:21.723Z,20.31
2023-05-29T23:57:36.847Z,20.23
